San Isidro, Texas
Current Conditions -  °F | °C
As of 9:35 AM on Saturday 20 Dec 2014 (Local Time) from KEBG Reporting Station
Overcast Overcast  
Wind Chill: 56°   Ceiling: 800
Heat Index: 56°   Visibility: 7mi
Dew Point: 53°   Wind: 7mph
Humidity: 88%   Direction: 20°NNE
Pressure: 30.22"   Gusts: NA
Location:  26.72°N, 98.45°W
Report Text: KEBG 201535Z AUTO 02006KT 7SM OVC008 14/12 A3022 RMK AO2 T01350115
Loading
Personal Weather Stations






























Interactive Weather Map New forecast layout! Learn more

10-Day Weather Forecast

Advertisements
Track Severe Weather on mobile